createdAt,value
2019-03-18T00:00:32.308Z,1.20
2019-03-18T00:03:02.085Z,1.33
2019-03-18T00:05:31.769Z,1.20
2019-03-18T00:08:01.506Z,1.40
2019-03-18T00:10:31.400Z,1.40
2019-03-18T00:13:01.122Z,1.30
2019-03-18T00:15:30.987Z,1.40
2019-03-18T00:18:00.642Z,1.43
2019-03-18T00:20:30.364Z,1.20
2019-03-18T00:23:00.113Z,1.53
2019-03-18T00:25:32.959Z,1.20
2019-03-18T00:28:02.188Z,1.43
2019-03-18T00:30:32.085Z,1.50
2019-03-18T00:33:03.182Z,1.40
2019-03-18T00:35:32.893Z,1.40
2019-03-18T00:38:03.731Z,1.30
2019-03-18T00:40:33.063Z,1.60
2019-03-18T00:43:02.674Z,1.23
2019-03-18T00:45:32.480Z,1.50
2019-03-18T00:48:01.715Z,1.50
2019-03-18T00:50:30.947Z,1.30
2019-03-18T00:53:00.411Z,1.53
2019-03-18T00:55:29.595Z,1.60
2019-03-18T00:57:59.160Z,1.60
2019-03-18T01:00:28.432Z,1.60
2019-03-18T01:02:58.113Z,1.20
2019-03-18T01:05:27.766Z,1.43
2019-03-18T01:07:57.515Z,1.77
2019-03-18T01:10:27.130Z,1.47
2019-03-18T01:12:56.523Z,1.27
2019-03-18T01:15:28.385Z,1.40
2019-03-18T01:17:57.583Z,1.70
2019-03-18T01:20:27.229Z,1.33
2019-03-18T01:22:56.465Z,1.30
2019-03-18T01:25:25.577Z,1.60
2019-03-18T01:27:55.145Z,1.43
2019-03-18T01:30:24.387Z,1.80
2019-03-18T01:32:54.164Z,1.50
2019-03-18T01:35:23.445Z,1.60
2019-03-18T01:37:52.680Z,1.53
2019-03-18T01:40:22.318Z,1.47
2019-03-18T01:42:52.224Z,1.67
2019-03-18T01:45:21.879Z,1.60
2019-03-18T01:47:51.537Z,1.77
2019-03-18T01:50:21.360Z,1.80
2019-03-18T01:52:50.987Z,1.40
2019-03-18T01:55:20.285Z,1.67
2019-03-18T01:57:49.907Z,1.40
2019-03-18T02:00:19.515Z,1.50
2019-03-18T02:02:51.782Z,1.37
2019-03-18T02:05:20.196Z,1.50
2019-03-18T02:07:49.782Z,1.70
2019-03-18T02:10:19.518Z,1.50
2019-03-18T02:12:48.829Z,1.60
2019-03-18T02:15:18.371Z,1.60
2019-03-18T02:17:48.111Z,1.60
2019-03-18T02:20:19.806Z,1.50
2019-03-18T02:22:49.234Z,1.40
2019-03-18T02:25:18.542Z,1.63
2019-03-18T02:27:47.672Z,1.43
2019-03-18T02:30:17.114Z,1.97
2019-03-18T02:32:46.378Z,1.70
2019-03-18T02:35:16.005Z,1.60
2019-03-18T02:37:45.666Z,1.50
2019-03-18T02:40:15.748Z,1.80
2019-03-18T02:42:45.575Z,1.30
2019-03-18T02:45:15.224Z,1.70
2019-03-18T02:47:44.974Z,1.40
2019-03-18T02:50:14.904Z,1.60
2019-03-18T02:52:44.638Z,1.67
2019-03-18T02:55:13.885Z,1.60
2019-03-18T02:57:43.470Z,1.73
2019-03-18T03:00:13.448Z,1.73
2019-03-18T03:02:42.862Z,2.00
2019-03-18T03:05:12.078Z,1.80
2019-03-18T03:07:41.699Z,2.10
2019-03-18T03:10:12.167Z,2.10
2019-03-18T03:12:42.828Z,1.90
2019-03-18T03:15:12.194Z,1.57
2019-03-18T03:17:41.770Z,1.77
2019-03-18T03:20:11.554Z,2.07
2019-03-18T03:22:42.151Z,2.40
2019-03-18T03:25:12.383Z,2.20
2019-03-18T03:27:42.316Z,2.30
2019-03-18T03:30:12.247Z,2.30
2019-03-18T03:32:42.114Z,2.63
2019-03-18T03:35:12.249Z,2.47
2019-03-18T03:37:42.064Z,2.13
2019-03-18T03:40:11.957Z,2.33
2019-03-18T03:42:41.210Z,2.37
2019-03-18T03:45:11.645Z,2.70
2019-03-18T03:47:41.538Z,3.37
2019-03-18T03:50:11.503Z,2.17
2019-03-18T03:52:41.149Z,2.43
2019-03-18T03:55:10.433Z,2.20
2019-03-18T03:57:39.636Z,2.20
2019-03-18T04:00:09.794Z,2.20
2019-03-18T04:02:39.524Z,2.47
2019-03-18T04:05:09.332Z,2.30
2019-03-18T04:07:40.736Z,2.40
2019-03-18T04:10:10.775Z,2.70
2019-03-18T04:12:40.492Z,3.07
2019-03-18T04:15:10.472Z,3.73
2019-03-18T04:17:40.140Z,2.37
2019-03-18T04:20:10.111Z,2.20
2019-03-18T04:22:39.717Z,2.20
2019-03-18T04:25:09.573Z,2.60
2019-03-18T04:27:39.239Z,2.20
2019-03-18T04:30:08.552Z,2.20
2019-03-18T04:32:37.834Z,2.33
2019-03-18T04:35:07.591Z,2.30
2019-03-18T04:37:37.290Z,2.63
2019-03-18T04:40:07.102Z,2.20
2019-03-18T04:42:37.274Z,2.63
2019-03-18T04:45:07.033Z,2.30
2019-03-18T04:47:36.670Z,2.30
2019-03-18T04:50:06.939Z,2.50
2019-03-18T04:52:36.600Z,2.40
2019-03-18T04:55:05.937Z,2.40
2019-03-18T04:57:35.584Z,2.33
2019-03-18T05:00:04.875Z,2.57
2019-03-18T05:02:34.051Z,2.43
2019-03-18T05:05:03.841Z,2.33
2019-03-18T05:07:33.523Z,2.30
2019-03-18T05:10:03.316Z,2.40
2019-03-18T05:12:33.220Z,2.37
2019-03-18T05:15:02.994Z,2.27
2019-03-18T05:17:32.743Z,2.20
2019-03-18T05:20:02.426Z,2.57
2019-03-18T05:22:31.812Z,2.07
2019-03-18T05:25:01.993Z,2.50
2019-03-18T05:27:31.284Z,2.60
2019-03-18T05:30:00.562Z,2.50
2019-03-18T05:32:29.735Z,2.73
2019-03-18T05:34:59.435Z,2.40
2019-03-18T05:37:29.097Z,2.60
2019-03-18T05:39:58.437Z,2.77
2019-03-18T05:42:28.189Z,2.43
2019-03-18T05:44:57.400Z,2.53
2019-03-18T05:47:38.326Z,2.73
2019-03-18T05:49:57.364Z,2.57
2019-03-18T05:52:26.525Z,2.90
2019-03-18T05:54:58.468Z,2.87
2019-03-18T05:57:27.734Z,2.73
2019-03-18T05:59:57.370Z,3.00
2019-03-18T06:02:26.573Z,2.73
2019-03-18T06:04:55.675Z,2.80
2019-03-18T06:07:24.795Z,2.83
2019-03-18T06:09:53.915Z,2.73
2019-03-18T06:12:23.486Z,2.60
2019-03-18T06:14:53.407Z,2.90
2019-03-18T06:17:22.617Z,2.57
2019-03-18T06:19:52.198Z,2.20
2019-03-18T06:22:22.040Z,2.20
2019-03-18T06:24:51.268Z,2.27
2019-03-18T06:27:20.854Z,2.10
2019-03-18T06:29:51.185Z,2.30
2019-03-18T06:32:20.595Z,2.40
2019-03-18T06:34:49.861Z,2.37
2019-03-18T06:37:27.775Z,2.27
2019-03-18T06:39:57.163Z,1.90
2019-03-18T06:42:26.443Z,1.97
2019-03-18T06:45:02.022Z,1.90
2019-03-18T06:47:31.276Z,1.90
2019-03-18T06:50:00.900Z,1.93
2019-03-18T06:52:30.600Z,2.10
2019-03-18T06:54:59.847Z,1.80
2019-03-18T06:57:29.123Z,1.80
2019-03-18T06:59:58.438Z,1.90
2019-03-18T07:02:27.597Z,1.60
2019-03-18T07:04:57.200Z,1.90
2019-03-18T07:07:26.545Z,1.90
2019-03-18T07:09:56.322Z,2.40
2019-03-18T07:12:25.629Z,2.53
2019-03-18T07:14:56.854Z,2.00
2019-03-18T07:17:26.383Z,2.20
2019-03-18T07:19:55.635Z,2.30
2019-03-18T07:22:24.838Z,2.17
2019-03-18T07:24:53.975Z,1.87
2019-03-18T07:27:24.743Z,2.40
2019-03-18T07:29:55.317Z,2.20
2019-03-18T07:32:25.242Z,2.33
2019-03-18T07:34:54.520Z,2.30
2019-03-18T07:37:23.654Z,2.00
2019-03-18T07:39:53.252Z,1.67
2019-03-18T07:42:22.470Z,2.10
2019-03-18T07:44:52.208Z,2.60
2019-03-18T07:47:22.280Z,2.10
2019-03-18T07:49:52.161Z,2.00
2019-03-18T07:52:22.031Z,2.40
2019-03-18T07:54:51.625Z,1.90
2019-03-18T07:57:20.821Z,1.90
2019-03-18T07:59:49.986Z,2.10
2019-03-18T08:02:19.591Z,1.90
2019-03-18T08:04:48.820Z,1.80
2019-03-18T08:07:18.145Z,1.60
2019-03-18T08:09:47.946Z,1.60
2019-03-18T08:12:17.589Z,1.50
2019-03-18T08:14:47.199Z,1.40
2019-03-18T08:17:16.823Z,1.80
2019-03-18T08:19:47.621Z,1.33
2019-03-18T08:22:17.265Z,1.57
2019-03-18T08:24:46.467Z,1.30
2019-03-18T08:27:15.595Z,1.00
2019-03-18T08:29:44.733Z,1.57
2019-03-18T08:32:13.983Z,1.70
2019-03-18T08:34:43.715Z,1.57
2019-03-18T08:37:13.360Z,1.73
2019-03-18T08:39:42.626Z,2.10
2019-03-18T08:42:12.223Z,2.47
2019-03-18T08:44:42.807Z,2.73
2019-03-18T08:47:12.516Z,1.67
2019-03-18T08:49:41.719Z,2.30
2019-03-18T08:52:10.875Z,1.50
2019-03-18T08:54:40.097Z,2.10
2019-03-18T08:57:09.623Z,2.17
2019-03-18T08:59:39.334Z,1.70
2019-03-18T09:02:09.259Z,2.27
2019-03-18T09:04:38.397Z,2.57
2019-03-18T09:07:07.648Z,2.13
2019-03-18T09:09:37.215Z,2.17
2019-03-18T09:12:06.986Z,1.70
2019-03-18T09:14:36.655Z,2.33
2019-03-18T09:17:06.445Z,1.90
2019-03-18T09:19:36.108Z,1.83
2019-03-18T09:22:05.420Z,1.70
2019-03-18T09:24:35.027Z,1.70
2019-03-18T09:27:04.502Z,1.27
2019-03-18T09:29:33.680Z,1.73
2019-03-18T09:32:03.224Z,1.83
2019-03-18T09:34:32.492Z,1.60
2019-03-18T09:37:02.011Z,1.67
2019-03-18T09:39:32.788Z,1.63
2019-03-18T09:42:01.996Z,1.43
2019-03-18T09:44:31.173Z,1.70
2019-03-18T09:47:00.884Z,1.70
2019-03-18T09:49:30.716Z,1.70
2019-03-18T09:52:00.516Z,1.40
2019-03-18T09:54:29.861Z,1.90
2019-03-18T09:56:59.729Z,1.73
2019-03-18T09:59:29.394Z,1.37
2019-03-18T10:01:58.619Z,1.57
2019-03-18T10:04:27.758Z,1.77
2019-03-18T10:06:57.316Z,1.37
2019-03-18T10:09:26.529Z,1.30
2019-03-18T10:11:56.125Z,1.40
2019-03-18T10:14:25.773Z,1.40
2019-03-18T10:16:55.482Z,1.23
2019-03-18T10:19:33.537Z,1.60
2019-03-18T10:21:56.498Z,1.60
2019-03-18T10:24:26.063Z,1.50
2019-03-18T10:26:55.889Z,1.60
2019-03-18T10:29:25.666Z,1.37
2019-03-18T10:31:55.396Z,1.20
2019-03-18T10:34:25.050Z,1.70
2019-03-18T10:36:54.388Z,1.43
2019-03-18T10:39:24.086Z,2.00
2019-03-18T10:41:53.885Z,1.60
2019-03-18T10:44:23.696Z,1.57
2019-03-18T10:46:54.207Z,1.53
2019-03-18T10:49:23.395Z,1.67
2019-03-18T10:51:52.525Z,1.80
2019-03-18T10:54:30.903Z,1.43
2019-03-18T10:56:52.770Z,1.77
2019-03-18T10:59:22.051Z,1.50
2019-03-18T11:01:52.241Z,1.60
2019-03-18T11:04:21.469Z,1.30
2019-03-18T11:06:51.058Z,1.47
2019-03-18T11:09:20.983Z,2.20
2019-03-18T11:11:50.616Z,1.90
2019-03-18T11:14:20.227Z,1.90
2019-03-18T11:16:52.384Z,1.60
2019-03-18T11:19:21.459Z,1.63
2019-03-18T11:21:51.159Z,1.53
2019-03-18T11:24:20.947Z,1.80
2019-03-18T11:26:50.225Z,1.37
2019-03-18T11:29:19.442Z,1.57
2019-03-18T11:31:48.580Z,1.37
2019-03-18T11:34:18.149Z,1.50
2019-03-18T11:36:47.355Z,1.93
2019-03-18T11:39:16.954Z,1.70
2019-03-18T11:41:46.292Z,1.73
2019-03-18T11:44:17.011Z,1.50
2019-03-18T11:46:46.656Z,1.30
2019-03-18T11:49:16.634Z,1.40
2019-03-18T11:51:46.484Z,1.63
2019-03-18T11:54:15.788Z,1.07
2019-03-18T11:56:45.528Z,1.77
2019-03-18T11:59:15.159Z,1.27
2019-03-18T12:01:44.375Z,1.57
2019-03-18T12:04:13.983Z,1.30
2019-03-18T12:06:43.197Z,1.30
2019-03-18T12:09:12.444Z,0.97
2019-03-18T12:11:41.533Z,1.53
2019-03-18T12:14:11.144Z,1.20
2019-03-18T12:16:40.827Z,1.10
2019-03-18T12:19:10.519Z,1.27
2019-03-18T12:21:40.232Z,1.13
2019-03-18T12:24:09.570Z,1.10
2019-03-18T12:26:39.194Z,1.43
2019-03-18T12:29:08.838Z,1.27
2019-03-18T12:31:38.101Z,1.53
2019-03-18T12:34:07.488Z,1.20
2019-03-18T12:36:36.805Z,1.50
2019-03-18T12:39:07.222Z,1.50
2019-03-18T12:41:36.864Z,1.00
2019-03-18T12:44:06.561Z,1.00
2019-03-18T12:46:36.196Z,1.00
2019-03-18T12:49:05.387Z,0.83
2019-03-18T12:51:34.520Z,1.30
2019-03-18T12:54:03.774Z,0.97
2019-03-18T12:56:33.935Z,1.10
2019-03-18T12:59:04.512Z,1.10
2019-03-18T13:01:33.811Z,1.57
2019-03-18T13:04:03.075Z,1.20
2019-03-18T13:06:33.487Z,1.37
2019-03-18T13:09:02.892Z,1.10
2019-03-18T13:11:33.077Z,0.97
2019-03-18T13:14:02.617Z,1.60
2019-03-18T13:16:31.825Z,1.07
2019-03-18T13:19:01.402Z,1.10
2019-03-18T13:21:31.148Z,1.17
2019-03-18T13:24:00.403Z,1.60
2019-03-18T13:26:30.527Z,1.60
2019-03-18T13:28:59.725Z,1.77
2019-03-18T13:31:29.268Z,1.53
2019-03-18T13:33:58.695Z,1.83
2019-03-18T13:36:29.692Z,1.30
2019-03-18T13:38:59.328Z,1.50
2019-03-18T13:41:29.039Z,1.27
2019-03-18T13:43:58.335Z,1.87
2019-03-18T13:46:27.992Z,1.60
2019-03-18T13:48:57.238Z,1.80
2019-03-18T13:51:26.903Z,1.57
2019-03-18T13:53:56.188Z,2.00
2019-03-18T13:56:25.311Z,1.43
2019-03-18T13:58:54.737Z,2.57
2019-03-18T14:01:24.282Z,2.10
2019-03-18T14:03:53.391Z,4.93
2019-03-18T14:06:22.474Z,1.50
2019-03-18T14:08:52.023Z,2.00
2019-03-18T14:11:21.945Z,1.87
2019-03-18T14:13:51.582Z,1.90
2019-03-18T14:16:21.050Z,1.80
2019-03-18T14:18:50.246Z,2.20
2019-03-18T14:21:19.399Z,1.83
2019-03-18T14:23:49.002Z,1.93
2019-03-18T14:26:18.335Z,1.60
2019-03-18T14:28:48.067Z,1.37
2019-03-18T14:31:17.438Z,1.60
2019-03-18T14:33:46.592Z,1.30
2019-03-18T14:36:16.158Z,1.20
2019-03-18T14:38:45.432Z,1.17
2019-03-18T14:41:14.662Z,1.40
2019-03-18T14:43:46.471Z,1.90
2019-03-18T14:46:14.790Z,1.73
2019-03-18T14:48:44.216Z,1.43
2019-03-18T14:51:13.402Z,1.83
2019-03-18T14:53:43.199Z,1.80
2019-03-18T14:56:12.489Z,2.07
2019-03-18T14:58:41.678Z,1.37
2019-03-18T15:01:11.347Z,1.50
2019-03-18T15:03:41.094Z,1.90
2019-03-18T15:06:10.271Z,1.50
2019-03-18T15:08:39.435Z,1.50
2019-03-18T15:11:08.561Z,1.90
2019-03-18T15:13:38.698Z,1.93
2019-03-18T15:16:08.335Z,1.63
2019-03-18T15:18:37.969Z,1.77
2019-03-18T15:21:07.162Z,1.83
2019-03-18T15:23:36.433Z,1.90
2019-03-18T15:26:05.721Z,3.40
2019-03-18T15:28:35.318Z,3.03
2019-03-18T15:31:04.546Z,2.17
2019-03-18T15:33:33.715Z,2.10
2019-03-18T15:36:03.286Z,2.73
2019-03-18T15:38:33.115Z,2.00
2019-03-18T15:41:02.734Z,3.23
2019-03-18T15:43:32.455Z,2.17
2019-03-18T15:46:02.259Z,2.10
2019-03-18T15:48:32.061Z,2.33
2019-03-18T15:51:01.271Z,2.20
2019-03-18T15:53:30.399Z,2.30
2019-03-18T15:55:59.498Z,2.20
2019-03-18T15:58:28.635Z,2.50
2019-03-18T16:00:57.758Z,2.53
2019-03-18T16:03:26.877Z,4.37
2019-03-18T16:05:56.201Z,1.93
2019-03-18T16:08:25.309Z,1.73
2019-03-18T16:10:54.576Z,1.80
2019-03-18T16:13:24.183Z,1.30
2019-03-18T16:15:53.966Z,2.13
2019-03-18T16:18:23.894Z,1.83
2019-03-18T16:20:53.648Z,1.80
2019-03-18T16:23:23.291Z,1.90
2019-03-18T16:25:53.172Z,1.87
2019-03-18T16:28:22.870Z,2.00
2019-03-18T16:30:52.433Z,2.23
2019-03-18T16:33:22.121Z,3.23
2019-03-18T16:35:51.851Z,5.00
2019-03-18T16:38:21.091Z,3.70
2019-03-18T16:40:50.459Z,2.20
2019-03-18T16:43:20.172Z,2.43
2019-03-18T16:45:49.661Z,2.53
2019-03-18T16:48:20.345Z,2.60
2019-03-18T16:50:50.190Z,2.37
2019-03-18T16:53:20.922Z,2.73
2019-03-18T16:55:51.087Z,2.10
2019-03-18T16:58:20.921Z,2.63
2019-03-18T17:00:50.279Z,2.60
2019-03-18T17:03:19.893Z,2.40
2019-03-18T17:05:49.151Z,2.17
2019-03-18T17:08:18.396Z,2.57
2019-03-18T17:10:48.087Z,2.30
2019-03-18T17:13:17.855Z,2.40
2019-03-18T17:15:47.111Z,2.50
2019-03-18T17:18:17.995Z,2.60
2019-03-18T17:20:48.846Z,2.60
2019-03-18T17:23:18.537Z,2.40
2019-03-18T17:25:47.876Z,2.87
2019-03-18T17:28:17.068Z,2.60
2019-03-18T17:30:46.274Z,5.57
2019-03-18T17:33:15.471Z,3.67
2019-03-18T17:35:44.694Z,2.67
2019-03-18T17:38:14.954Z,2.70
2019-03-18T17:40:45.101Z,2.70
2019-03-18T17:43:14.959Z,2.80
2019-03-18T17:45:44.792Z,2.87
2019-03-18T17:48:14.606Z,2.33
2019-03-18T17:50:44.486Z,3.53
2019-03-18T17:53:14.207Z,2.27
2019-03-18T17:55:43.678Z,3.00
2019-03-18T17:58:13.383Z,3.10
2019-03-18T18:00:45.855Z,2.47
2019-03-18T18:03:15.613Z,2.70
2019-03-18T18:05:45.631Z,3.33
2019-03-18T18:08:17.889Z,2.20
2019-03-18T18:10:46.314Z,2.60
2019-03-18T18:13:15.753Z,2.80
2019-03-18T18:15:46.397Z,2.67
2019-03-18T18:18:16.190Z,3.17
2019-03-18T18:20:45.504Z,2.27
2019-03-18T18:23:15.326Z,1.40
2019-03-18T18:25:45.001Z,1.20
2019-03-18T18:28:14.326Z,1.00
2019-03-18T18:30:43.525Z,1.10
2019-03-18T18:33:12.737Z,0.90
2019-03-18T18:35:42.312Z,1.20
2019-03-18T18:38:11.567Z,8.20
2019-03-18T18:40:41.145Z,6.13
2019-03-18T18:43:10.413Z,4.53
2019-03-18T18:45:39.610Z,1.00
2019-03-18T18:48:09.237Z,0.93
2019-03-18T18:50:38.506Z,2.07
2019-03-18T18:53:08.129Z,0.93
2019-03-18T18:55:37.386Z,0.70
2019-03-18T18:58:06.627Z,1.00
2019-03-18T19:00:36.907Z,0.80
2019-03-18T19:03:06.276Z,0.77
2019-03-18T19:05:35.958Z,0.83
2019-03-18T19:08:05.668Z,0.90
2019-03-18T19:10:35.416Z,1.10
2019-03-18T19:13:04.758Z,1.13
2019-03-18T19:15:33.948Z,1.00
2019-03-18T19:18:03.207Z,0.93
2019-03-18T19:20:32.895Z,1.03
2019-03-18T19:23:02.224Z,1.00
2019-03-18T19:25:31.332Z,1.00
2019-03-18T19:28:00.513Z,0.90
2019-03-18T19:30:29.696Z,0.83
2019-03-18T19:32:59.371Z,0.90
2019-03-18T19:35:28.967Z,0.60
2019-03-18T19:37:58.743Z,1.70
2019-03-18T19:40:28.483Z,1.00
2019-03-18T19:42:58.254Z,0.70
2019-03-18T19:45:27.684Z,1.07
2019-03-18T19:47:56.905Z,0.80
2019-03-18T19:50:26.851Z,1.30
2019-03-18T19:52:56.231Z,5.07
2019-03-18T19:55:25.926Z,1.47
2019-03-18T19:57:55.336Z,1.00
2019-03-18T20:00:24.630Z,0.90
2019-03-18T20:02:54.094Z,1.13
2019-03-18T20:05:23.271Z,2.10
2019-03-18T20:07:53.036Z,1.47
2019-03-18T20:10:22.202Z,0.90
2019-03-18T20:12:51.939Z,1.03
2019-03-18T20:15:21.778Z,1.30
2019-03-18T20:17:51.165Z,1.10
2019-03-18T20:20:20.849Z,1.10
2019-03-18T20:22:50.693Z,1.70
2019-03-18T20:25:19.930Z,1.53
2019-03-18T20:27:49.655Z,1.83
2019-03-18T20:30:19.668Z,1.77
2019-03-18T20:32:49.540Z,2.30
2019-03-18T20:35:19.358Z,1.80
2019-03-18T20:37:51.469Z,2.30
2019-03-18T20:40:19.818Z,2.20
2019-03-18T20:42:49.465Z,2.40
2019-03-18T20:45:19.358Z,2.37
2019-03-18T20:47:48.586Z,2.07
2019-03-18T20:50:18.488Z,2.57
2019-03-18T20:52:48.367Z,2.73
2019-03-18T20:55:17.702Z,3.30
2019-03-18T20:57:46.948Z,1.90
2019-03-18T21:00:16.368Z,1.70
2019-03-18T21:02:46.128Z,1.60
2019-03-18T21:05:15.460Z,6.70
2019-03-18T21:07:44.814Z,2.57
2019-03-18T21:10:14.540Z,2.27
2019-03-18T21:12:44.365Z,2.50
2019-03-18T21:15:14.267Z,2.43
2019-03-18T21:17:44.076Z,2.97
2019-03-18T21:20:15.050Z,3.07
2019-03-18T21:22:44.968Z,3.10
2019-03-18T21:25:14.555Z,3.10
2019-03-18T21:27:43.726Z,3.40
2019-03-18T21:30:13.587Z,3.87
2019-03-18T21:32:43.634Z,3.67
2019-03-18T21:35:12.940Z,3.40
2019-03-18T21:37:42.061Z,3.23
2019-03-18T21:40:12.445Z,3.57
2019-03-18T21:42:43.285Z,4.00
2019-03-18T21:45:14.937Z,3.60
2019-03-18T21:47:44.339Z,3.10
2019-03-18T21:50:15.584Z,3.73
2019-03-18T21:52:45.819Z,3.40
2019-03-18T21:55:16.069Z,3.57
2019-03-18T21:57:45.814Z,2.80
2019-03-18T22:00:15.603Z,3.60
2019-03-18T22:02:44.754Z,3.27
2019-03-18T22:05:14.082Z,3.83
2019-03-18T22:07:43.834Z,2.90
2019-03-18T22:10:13.191Z,3.67
2019-03-18T22:12:42.852Z,3.30
2019-03-18T22:15:12.903Z,3.33
2019-03-18T22:17:42.745Z,3.07
2019-03-18T22:20:13.664Z,3.03
2019-03-18T22:22:43.501Z,3.27
2019-03-18T22:25:13.144Z,3.67
2019-03-18T22:27:42.384Z,3.57
2019-03-18T22:30:12.378Z,3.30
2019-03-18T22:32:42.149Z,3.70
2019-03-18T22:35:12.331Z,3.67
2019-03-18T22:37:42.087Z,3.63
2019-03-18T22:40:12.178Z,3.27
2019-03-18T22:42:41.911Z,3.03
2019-03-18T22:45:11.875Z,3.70
2019-03-18T22:47:42.667Z,3.43
2019-03-18T22:50:12.846Z,3.50
2019-03-18T22:52:43.586Z,3.43
2019-03-18T22:55:13.355Z,3.40
2019-03-18T22:57:42.668Z,3.30
2019-03-18T23:00:33.201Z,3.10
2019-03-18T23:03:03.716Z,3.77
2019-03-18T23:05:33.442Z,2.90
2019-03-18T23:08:02.812Z,3.43
2019-03-18T23:10:33.050Z,3.67
2019-03-18T23:13:02.953Z,4.17
2019-03-18T23:15:33.875Z,4.93
2019-03-18T23:18:03.788Z,4.10
2019-03-18T23:20:33.601Z,3.97
2019-03-18T23:23:03.632Z,3.40
2019-03-18T23:25:33.139Z,3.80
2019-03-18T23:28:02.405Z,3.70
2019-03-18T23:30:32.106Z,4.00
2019-03-18T23:33:02.046Z,3.17
2019-03-18T23:35:31.970Z,3.23
2019-03-18T23:38:02.114Z,3.53
2019-03-18T23:40:31.840Z,3.20
2019-03-18T23:43:01.507Z,3.80
2019-03-18T23:45:30.839Z,3.30
2019-03-18T23:48:00.552Z,3.03
2019-03-18T23:50:30.313Z,3.40
2019-03-18T23:53:00.158Z,4.53
2019-03-18T23:55:29.813Z,3.93
2019-03-18T23:57:59.596Z,3.60
